Time;durP1;ratioP1;P1;durP2;ratioP2;P2;SDS_P1;SDS_P2;PMS_P1;PMS_P2;Temp;Humidity;BMP_temperature;BMP_pressure;BME280_temperature;BME280_humidity;BME280_pressure;Samples;Min_cycle;Max_cycle;Signal;HPM_P1;HPM_P2
2022/09/21 00:01:09;;;;;;;6.18;2.22;;;15.10;91.20;;;;;;5062489;28;20477;-76
2022/09/21 00:03:36;;;;;;;9.30;2.40;;;15.00;91.40;;;;;;5063248;28;20021;-76
2022/09/21 00:06:06;;;;;;;9.40;2.30;;;14.90;91.80;;;;;;5069887;28;20549;-75
2022/09/21 00:08:33;;;;;;;7.45;2.30;;;14.90;92.10;;;;;;5064974;28;20381;-76
2022/09/21 00:11:00;;;;;;;5.40;2.85;;;14.90;92.70;;;;;;5072025;28;20032;-76
2022/09/21 00:13:27;;;;;;;9.35;2.75;;;14.90;92.80;;;;;;5068681;28;20432;-76
2022/09/21 00:15:54;;;;;;;6.95;2.70;;;14.80;93.10;;;;;;5075349;28;20031;-76
2022/09/21 00:18:21;;;;;;;4.95;2.85;;;14.80;93.40;;;;;;5071613;28;20109;-75
2022/09/21 00:20:47;;;;;;;9.27;2.47;;;14.80;93.50;;;;;;5077357;28;20495;-75
2022/09/21 00:23:13;;;;;;;4.65;2.45;;;14.80;93.70;;;;;;5074727;28;20020;-76
2022/09/21 00:25:38;;;;;;;5.55;2.10;;;14.70;94.10;;;;;;5079097;28;20055;-76
2022/09/21 00:28:04;;;;;;;6.25;2.75;;;14.70;94.40;;;;;;5078524;28;20072;-76
2022/09/21 00:30:30;;;;;;;3.95;2.88;;;14.70;94.60;;;;;;5061359;28;20024;-76
2022/09/21 00:32:56;;;;;;;6.60;2.17;;;14.70;94.90;;;;;;5070288;28;20013;-76
2022/09/21 00:35:21;;;;;;;3.97;2.75;;;14.60;95.10;;;;;;5072315;28;20482;-76
2022/09/21 00:37:47;;;;;;;8.23;2.53;;;14.60;95.30;;;;;;5068135;28;20063;-76
2022/09/21 00:40:13;;;;;;;5.60;2.30;;;14.60;95.30;;;;;;5075066;28;20032;-75
2022/09/21 00:42:39;;;;;;;5.93;2.50;;;14.60;95.60;;;;;;5071388;28;20013;-77
2022/09/21 00:45:06;;;;;;;5.45;2.60;;;14.60;95.80;;;;;;5077402;28;20021;-75
2022/09/21 00:47:34;;;;;;;9.43;2.50;;;14.60;96.10;;;;;;5075379;28;20017;-76
2022/09/21 00:50:04;;;;;;;6.80;2.63;;;14.50;96.20;;;;;;5078133;28;20028;-77
2022/09/21 00:52:34;;;;;;;5.15;2.40;;;14.50;96.50;;;;;;5063463;28;20024;-76
2022/09/21 00:55:13;;;;;;;6.53;2.80;;;14.50;96.80;;;;;;5061184;28;20025;-75
2022/09/21 00:57:40;;;;;;;11.48;2.90;;;14.40;97.00;;;;;;5063769;28;20043;-77
2022/09/21 01:00:08;;;;;;;7.38;2.78;;;14.40;97.10;;;;;;5062608;28;20082;-75
2022/09/21 01:02:35;;;;;;;8.18;3.25;;;14.40;97.50;;;;;;5067016;28;20040;-76
2022/09/21 01:05:05;;;;;;;5.72;2.58;;;14.40;97.60;;;;;;5063406;28;20477;-75
2022/09/21 01:07:35;;;;;;;4.63;2.55;;;14.40;97.70;;;;;;5068075;28;20103;-75
2022/09/21 01:10:09;;;;;;;9.48;2.55;;;14.40;97.90;;;;;;5078889;28;20016;-75
2022/09/21 01:12:54;;;;;;;9.23;2.38;;;14.40;98.00;;;;;;5075710;28;20086;-76
2022/09/21 01:15:40;;;;;;;5.22;2.25;;;14.30;98.20;;;;;;5073244;28;20529;-76
2022/09/21 01:18:40;;;;;;;6.47;2.97;;;14.30;98.50;;;;;;5071338;28;20028;-76
2022/09/21 01:21:18;;;;;;;4.10;2.30;;;14.30;98.70;;;;;;5068191;28;20389;-75
2022/09/21 01:24:20;;;;;;;5.43;2.65;;;14.20;99.00;;;;;;5072963;28;20049;-75
2022/09/21 01:27:30;;;;;;;4.13;2.30;;;14.20;99.10;;;;;;5076857;28;20027;-75
2022/09/21 01:30:03;;;;;;;8.67;2.77;;;14.20;99.50;;;;;;5060873;28;20037;-75
2022/09/21 01:32:54;;;;;;;7.07;2.60;;;14.20;99.60;;;;;;5066669;28;20256;-76
2022/09/21 01:35:45;;;;;;;7.05;2.28;;;14.10;99.70;;;;;;5060031;28;20029;-76
2022/09/21 01:38:35;;;;;;;6.03;3.00;;;14.10;99.90;;;;;;5057527;28;20118;-75
2022/09/21 01:41:05;;;;;;;4.80;2.63;;;14.00;99.90;;;;;;5077438;28;20021;-76
2022/09/21 01:43:34;;;;;;;;;;;14.00;99.90;;;;;;5073609;28;20021;-76
2022/09/21 01:46:02;;;;;;;3.25;2.17;;;14.00;99.90;;;;;;5080201;28;20285;-76
2022/09/21 01:48:34;;;;;;;7.38;2.35;;;14.00;99.90;;;;;;5067764;28;20025;-75
2022/09/21 01:51:05;;;;;;;8.43;3.15;;;13.90;99.90;;;;;;5066287;28;20037;-75
2022/09/21 01:53:40;;;;;;;5.68;2.70;;;13.90;99.90;;;;;;5070807;28;20124;-76
2022/09/21 01:56:17;;;;;;;4.78;2.63;;;13.80;99.90;;;;;;5071790;28;20020;-75
2022/09/21 01:59:20;;;;;;;6.47;2.80;;;13.80;99.90;;;;;;5071895;28;20020;-76
2022/09/21 02:01:53;;;;;;;8.60;3.08;;;13.80;99.90;;;;;;5064429;28;20112;-76
2022/09/21 02:04:19;;;;;;;9.10;2.53;;;13.80;99.90;;;;;;5075465;28;20472;-75
2022/09/21 02:06:46;;;;;;;8.95;2.78;;;13.80;99.90;;;;;;5077747;28;20393;-76
2022/09/21 02:09:13;;;;;;;6.20;2.58;;;13.70;99.90;;;;;;5058074;28;20106;-76
2022/09/21 02:11:41;;;;;;;6.88;2.63;;;13.70;99.90;;;;;;5057918;28;20040;-76
2022/09/21 02:14:10;;;;;;;9.75;3.13;;;13.70;99.90;;;;;;5062681;28;20544;-76
2022/09/21 02:16:39;;;;;;;3.72;2.50;;;13.70;99.90;;;;;;5068511;28;20024;-76
2022/09/21 02:19:43;;;;;;;8.43;4.25;;;13.70;99.90;;;;;;5069410;28;20021;-76
2022/09/21 02:22:30;;;;;;;5.20;2.58;;;13.60;99.90;;;;;;5074597;28;21463;-76
2022/09/21 02:25:25;;;;;;;8.65;3.17;;;13.60;99.90;;;;;;5075730;28;20024;-76
2022/09/21 02:27:51;;;;;;;5.60;2.70;;;13.70;99.90;;;;;;5067763;28;20056;-76
2022/09/21 02:30:20;;;;;;;4.63;2.58;;;13.60;99.90;;;;;;5062499;28;20021;-76
2022/09/21 02:33:09;;;;;;;4.82;3.25;;;13.60;99.90;;;;;;5060208;28;20501;-76
2022/09/21 02:36:10;;;;;;;7.60;2.58;;;13.60;99.90;;;;;;5066937;28;20051;-75
2022/09/21 02:38:46;;;;;;;7.00;3.20;;;13.60;99.90;;;;;;5066335;28;20078;-76
2022/09/21 02:41:30;;;;;;;5.75;2.55;;;13.50;99.90;;;;;;5067112;28;20021;-76
2022/09/21 02:43:59;;;;;;;5.93;3.20;;;13.50;99.90;;;;;;5068419;28;20013;-76
2022/09/21 02:46:39;;;;;;;6.97;2.88;;;13.50;99.90;;;;;;5071570;28;20541;-75
2022/09/21 02:49:12;;;;;;;8.45;3.10;;;13.50;99.90;;;;;;5070322;28;20021;-75
2022/09/21 02:51:49;;;;;;;9.02;2.63;;;13.40;99.90;;;;;;5073855;28;20481;-75
2022/09/21 02:54:23;;;;;;;6.75;3.63;;;13.40;99.90;;;;;;5075639;28;20028;-75
2022/09/21 02:56:50;;;;;;;6.88;3.30;;;13.40;99.90;;;;;;5065077;28;20056;-76
2022/09/21 02:59:16;;;;;;;6.18;2.85;;;13.30;99.90;;;;;;5059103;28;20033;-76
2022/09/21 03:01:43;;;;;;;8.80;2.95;;;13.40;99.90;;;;;;5057601;28;20115;-76
2022/09/21 03:04:09;;;;;;;7.05;2.67;;;13.30;99.90;;;;;;5062781;28;20020;-76
2022/09/21 03:06:36;;;;;;;10.40;3.22;;;13.30;99.90;;;;;;5059920;28;20508;-76
2022/09/21 03:09:01;;;;;;;8.70;2.92;;;13.30;99.90;;;;;;5065177;28;20025;-76
2022/09/21 03:11:28;;;;;;;12.02;2.83;;;13.30;99.90;;;;;;5062066;28;20025;-76
2022/09/21 03:13:53;;;;;;;17.95;3.05;;;13.20;99.90;;;;;;5068735;28;20053;-77
2022/09/21 03:16:20;;;;;;;6.32;2.67;;;13.20;99.90;;;;;;5067666;28;20025;-76
2022/09/21 03:18:46;;;;;;;4.32;2.67;;;13.10;99.90;;;;;;5070346;28;20020;-76
2022/09/21 03:21:12;;;;;;;6.53;2.85;;;13.10;99.90;;;;;;5069557;28;20078;-75
2022/09/21 03:23:39;;;;;;;9.00;2.83;;;13.10;99.90;;;;;;5071913;28;20373;-75
2022/09/21 03:26:05;;;;;;;4.45;3.17;;;13.10;99.90;;;;;;5074712;28;20027;-76
2022/09/21 03:28:30;;;;;;;7.78;3.80;;;13.00;99.90;;;;;;5071078;28;20493;-76
2022/09/21 03:30:56;;;;;;;7.25;2.75;;;13.00;99.90;;;;;;5057097;28;20062;-76
2022/09/21 03:33:24;;;;;;;6.07;2.88;;;12.90;99.90;;;;;;5058491;28;20054;-75
2022/09/21 03:35:50;;;;;;;7.28;2.92;;;12.90;99.90;;;;;;5059188;28;20413;-76
2022/09/21 03:38:17;;;;;;;6.85;4.05;;;12.80;99.90;;;;;;5065901;28;20028;-76
2022/09/21 03:40:47;;;;;;;9.55;2.58;;;12.70;99.90;;;;;;5064872;28;20032;-76
2022/09/21 03:43:14;;;;;;;9.52;3.03;;;12.70;99.90;;;;;;5070926;28;20020;-75
2022/09/21 03:45:41;;;;;;;7.72;3.20;;;12.70;99.90;;;;;;5066864;28;20071;-76
2022/09/21 03:48:09;;;;;;;6.65;2.83;;;12.70;99.90;;;;;;5072449;28;20016;-75
2022/09/21 03:50:35;;;;;;;7.57;3.55;;;12.60;99.90;;;;;;5069748;28;20040;-76
2022/09/21 03:53:01;;;;;;;4.13;2.72;;;12.60;99.90;;;;;;5074338;28;20108;-76
2022/09/21 03:55:27;;;;;;;8.35;2.85;;;12.60;99.90;;;;;;5072634;28;20048;-76
2022/09/21 03:57:53;;;;;;;5.40;3.50;;;12.60;99.90;;;;;;5075366;28;20023;-76
2022/09/21 04:00:19;;;;;;;8.27;3.38;;;12.50;99.90;;;;;;5077538;28;20093;-75
2022/09/21 04:02:45;;;;;;;3.92;2.40;;;12.50;99.90;;;;;;5078545;28;20020;-76
2022/09/21 04:05:13;;;;;;;9.10;3.22;;;12.50;99.90;;;;;;5080353;28;20028;-76
2022/09/21 04:07:41;;;;;;;6.50;2.95;;;12.50;99.90;;;;;;5062086;28;20027;-76
2022/09/21 04:10:13;;;;;;;5.85;3.03;;;12.50;99.90;;;;;;5061447;28;20043;-76
2022/09/21 04:12:42;;;;;;;8.50;3.30;;;12.50;99.90;;;;;;5078727;28;20501;-75
2022/09/21 04:15:13;;;;;;;5.68;3.35;;;12.50;99.90;;;;;;5070492;28;20025;-76
2022/09/21 04:17:39;;;;;;;;;;;12.40;99.90;;;;;;5067480;28;20027;-76
2022/09/21 04:20:06;;;;;;;5.72;3.65;;;12.40;99.90;;;;;;5068030;28;19909;-76
2022/09/21 04:22:31;;;;;;;10.88;2.80;;;12.40;99.90;;;;;;5072302;28;20051;-76
2022/09/21 04:24:57;;;;;;;6.30;3.47;;;12.20;99.90;;;;;;5075439;28;20079;-76
2022/09/21 04:27:23;;;;;;;13.05;3.53;;;12.10;99.90;;;;;;5075967;28;20028;-76
2022/09/21 04:29:49;;;;;;;9.98;3.13;;;12.00;99.90;;;;;;5065449;28;20385;-76
2022/09/21 04:32:15;;;;;;;3.80;2.95;;;11.90;99.90;;;;;;5059800;28;20478;-76
2022/09/21 04:34:41;;;;;;;6.10;2.97;;;11.80;99.90;;;;;;5064251;28;20028;-76
2022/09/21 04:37:08;;;;;;;11.07;3.53;;;11.80;99.90;;;;;;5063544;28;20057;-76
2022/09/21 04:39:34;;;;;;;3.65;2.83;;;11.80;99.90;;;;;;5064775;28;20025;-76
2022/09/21 04:42:00;;;;;;;10.27;3.45;;;11.70;99.90;;;;;;5066696;28;20076;-76
2022/09/21 04:44:26;;;;;;;6.57;3.33;;;11.70;99.90;;;;;;5066504;28;20021;-76
2022/09/21 04:46:52;;;;;;;6.55;3.65;;;11.80;99.90;;;;;;5069663;28;20035;-76
2022/09/21 04:49:18;;;;;;;10.93;3.22;;;11.80;99.90;;;;;;5070051;28;20049;-76
2022/09/21 04:51:44;;;;;;;10.35;3.63;;;11.80;99.90;;;;;;5074860;28;20107;-76
2022/09/21 04:54:10;;;;;;;9.45;3.08;;;11.70;99.90;;;;;;5071140;28;20059;-76
2022/09/21 04:56:35;;;;;;;5.20;3.20;;;11.60;99.90;;;;;;5076573;28;20115;-76
2022/09/21 04:59:01;;;;;;;9.38;4.35;;;11.50;99.90;;;;;;5074998;28;20500;-76
2022/09/21 05:01:27;;;;;;;5.18;3.25;;;11.40;99.90;;;;;;5078391;28;20021;-76
2022/09/21 05:03:53;;;;;;;5.40;2.80;;;11.30;99.90;;;;;;5075578;28;20493;-76
2022/09/21 05:06:19;;;;;;;7.40;3.55;;;11.30;99.90;;;;;;5060202;28;20025;-76
2022/09/21 05:11:29;;;;;;;7.32;3.30;;;11.10;99.90;;;;;;5061979;28;20087;-76
2022/09/21 05:13:55;;;;;;;7.70;3.63;;;11.00;99.90;;;;;;5064660;28;20028;-76
2022/09/21 05:16:21;;;;;;;10.10;3.75;;;11.00;99.90;;;;;;5063539;28;20029;-76
2022/09/21 05:18:47;;;;;;;7.85;3.60;;;10.90;99.90;;;;;;5067986;28;20458;-76
2022/09/21 05:21:14;;;;;;;6.35;3.53;;;10.90;99.90;;;;;;5069689;28;20430;-76
2022/09/21 05:23:40;;;;;;;5.00;3.20;;;10.90;99.90;;;;;;5078644;28;20017;-76
2022/09/21 05:26:06;;;;;;;13.02;3.88;;;10.80;99.90;;;;;;5076657;28;20035;-76
2022/09/21 05:28:32;;;;;;;5.20;3.60;;;10.80;99.90;;;;;;5075650;28;20059;-76
2022/09/21 05:31:16;;;;;;;18.13;3.47;;;10.70;99.90;;;;;;5073367;28;20048;-76
2022/09/21 05:34:28;;;;;;;5.38;3.40;;;10.70;99.90;;;;;;5071142;28;20072;-76
2022/09/21 05:37:00;;;;;;;12.30;3.78;;;10.70;99.90;;;;;;5071684;28;20044;-76
2022/09/21 05:39:26;;;;;;;10.73;4.28;;;10.60;99.90;;;;;;5071007;28;20025;-76
2022/09/21 05:41:52;;;;;;;7.90;3.63;;;10.70;99.90;;;;;;5074930;28;20021;-76
2022/09/21 05:44:20;;;;;;;10.70;3.80;;;10.70;99.90;;;;;;5069783;28;20434;-76
2022/09/21 05:46:58;;;;;;;6.35;3.50;;;10.60;99.90;;;;;;5071118;28;20017;-76
2022/09/21 05:49:35;;;;;;;9.48;4.25;;;10.60;99.90;;;;;;5073294;28;20036;-76
2022/09/21 05:52:34;;;;;;;9.00;3.47;;;10.60;99.90;;;;;;5059639;28;20032;-76
2022/09/21 05:55:06;;;;;;;8.43;3.40;;;10.60;99.90;;;;;;5068300;28;20055;-76
2022/09/21 05:57:40;;;;;;;5.47;3.20;;;10.60;99.90;;;;;;5068387;28;20448;-77
2022/09/21 06:00:19;;;;;;;6.03;3.20;;;10.60;99.90;;;;;;5060971;28;20081;-76
2022/09/21 06:03:22;;;;;;;7.07;3.45;;;10.70;99.90;;;;;;5064219;28;20025;-76
2022/09/21 06:05:48;;;;;;;10.75;3.70;;;10.70;99.90;;;;;;5069209;28;20024;-76
2022/09/21 06:08:14;;;;;;;5.68;3.30;;;10.80;99.90;;;;;;5066364;28;20028;-76
2022/09/21 06:10:40;;;;;;;8.98;3.60;;;10.80;99.90;;;;;;5070594;28;20496;-76
2022/09/21 06:13:06;;;;;;;6.05;3.47;;;10.90;99.90;;;;;;5074110;28;20020;-76
2022/09/21 06:15:37;;;;;;;10.45;3.90;;;11.00;99.90;;;;;;5074662;28;20459;-76
2022/09/21 06:18:04;;;;;;;8.98;4.28;;;11.10;99.90;;;;;;5073633;28;20024;-76
2022/09/21 06:20:30;;;;;;;6.32;3.22;;;11.10;99.90;;;;;;5075900;28;20024;-76
2022/09/21 06:23:00;;;;;;;3.75;3.10;;;11.30;99.90;;;;;;5077189;28;20024;-77
2022/09/21 06:25:26;;;;;;;7.22;3.20;;;11.30;99.90;;;;;;5065912;28;20047;-76
2022/09/21 06:27:52;;;;;;;6.35;3.67;;;11.40;99.90;;;;;;5077275;28;20477;-76
2022/09/21 06:30:18;;;;;;;6.63;3.40;;;11.50;99.90;;;;;;5074517;28;20055;-77
2022/09/21 06:32:44;;;;;;;9.02;3.80;;;11.60;99.90;;;;;;5063521;28;20025;-77
2022/09/21 06:35:09;;;;;;;9.82;3.92;;;11.60;99.90;;;;;;5076141;28;20033;-76
2022/09/21 06:37:38;;;;;;;8.43;3.75;;;11.70;99.90;;;;;;5077164;28;20057;-77
2022/09/21 06:40:05;;;;;;;9.38;3.70;;;11.70;99.90;;;;;;5058179;28;20044;-76
2022/09/21 06:42:31;;;;;;;7.82;3.40;;;11.80;99.90;;;;;;5070903;28;20436;-76
2022/09/21 06:44:56;;;;;;;9.82;4.30;;;11.90;99.90;;;;;;5062381;28;20090;-76
2022/09/21 06:47:22;;;;;;;7.53;4.25;;;12.00;99.90;;;;;;5061358;28;20020;-76
2022/09/21 06:49:48;;;;;;;9.05;3.50;;;12.10;99.90;;;;;;5065408;28;20504;-76
2022/09/21 06:52:14;;;;;;;4.20;3.10;;;12.20;99.90;;;;;;5062392;28;20048;-76
2022/09/21 06:54:41;;;;;;;6.63;3.22;;;12.40;99.90;;;;;;5068883;28;20028;-76
2022/09/21 06:57:07;;;;;;;13.13;2.80;;;12.60;99.90;;;;;;5063903;28;20075;-76
2022/09/21 06:59:33;;;;;;;9.38;3.60;;;12.80;99.90;;;;;;5076561;28;20032;-76
2022/09/21 07:01:58;;;;;;;5.68;3.53;;;13.00;99.90;;;;;;5068401;28;20017;-76
2022/09/21 07:04:24;;;;;;;8.82;3.42;;;13.20;99.90;;;;;;5072912;28;20602;-76
2022/09/21 07:06:50;;;;;;;6.82;3.40;;;13.40;99.90;;;;;;5073774;28;20078;-76
2022/09/21 07:09:16;;;;;;;6.05;3.38;;;13.50;99.90;;;;;;5076527;28;20024;-76
2022/09/21 07:11:42;;;;;;;10.23;4.25;;;13.60;99.90;;;;;;5064140;28;20017;-76
2022/09/21 07:14:08;;;;;;;9.75;3.03;;;13.70;99.90;;;;;;5058356;28;20039;-76
2022/09/21 07:16:34;;;;;;;12.00;2.85;;;13.80;99.90;;;;;;5058881;28;20025;-76
2022/09/21 07:19:01;;;;;;;6.28;3.00;;;13.90;99.90;;;;;;5058677;28;20025;-77
2022/09/21 07:21:26;;;;;;;6.53;3.45;;;14.00;99.90;;;;;;5060842;28;20025;-76
2022/09/21 07:23:52;;;;;;;6.20;2.80;;;14.10;99.90;;;;;;5065389;28;20095;-76
2022/09/21 07:26:18;;;;;;;9.60;3.30;;;14.20;99.90;;;;;;5074966;28;20078;-75
2022/09/21 07:28:44;;;;;;;4.95;2.33;;;14.30;99.90;;;;;;5073710;28;20032;-75
2022/09/21 07:31:13;;;;;;;7.25;2.78;;;14.40;99.90;;;;;;5065672;28;20493;-76
2022/09/21 07:33:39;;;;;;;8.65;3.38;;;14.40;99.90;;;;;;5069512;28;20060;-78
2022/09/21 07:36:09;;;;;;;9.50;2.92;;;14.50;99.90;;;;;;5071250;28;20131;-75
2022/09/21 07:38:40;;;;;;;11.63;3.30;;;14.60;99.90;;;;;;5075682;28;20083;-77
2022/09/21 07:41:11;;;;;;;8.65;2.72;;;14.60;99.90;;;;;;5074390;28;20028;-75
2022/09/21 07:43:39;;;;;;;7.45;2.72;;;14.70;99.90;;;;;;5068678;28;20021;-76
2022/09/21 07:46:06;;;;;;;8.30;3.13;;;14.70;99.90;;;;;;5060174;28;20022;-75
2022/09/21 07:48:32;;;;;;;9.30;2.70;;;14.70;99.90;;;;;;5059709;28;20018;-75
2022/09/21 07:51:04;;;;;;;12.23;4.00;;;14.70;99.90;;;;;;5062444;28;20079;-76
2022/09/21 07:53:32;;;;;;;13.95;3.92;;;14.80;99.90;;;;;;5061336;28;20493;-75
2022/09/21 07:56:03;;;;;;;12.55;3.78;;;14.90;99.90;;;;;;5065788;28;20029;-76
2022/09/21 08:01:13;;;;;;;8.05;3.70;;;14.90;99.90;;;;;;5071018;28;20069;-75
2022/09/21 08:03:39;;;;;;;9.00;2.97;;;15.00;99.90;;;;;;5066121;28;20021;-76
2022/09/21 08:06:06;;;;;;;8.60;3.25;;;15.00;99.90;;;;;;5071707;28;20016;-76
2022/09/21 08:08:31;;;;;;;15.38;3.97;;;15.00;99.90;;;;;;5069346;28;20112;-76
2022/09/21 08:11:05;;;;;;;10.32;2.90;;;15.10;99.90;;;;;;5073428;28;20165;-78
2022/09/21 08:13:31;;;;;;;7.57;3.25;;;15.20;99.90;;;;;;5073537;28;20028;-78
2022/09/21 08:16:01;;;;;;;6.63;2.75;;;15.30;99.90;;;;;;5068245;28;20017;-78
2022/09/21 08:18:27;;;;;;;10.07;2.60;;;15.30;99.90;;;;;;5074925;28;20083;-78
2022/09/21 08:20:54;;;;;;;11.13;4.05;;;15.40;99.90;;;;;;5074776;28;20016;-77
2022/09/21 08:23:20;;;;;;;11.18;3.42;;;15.50;99.90;;;;;;5066167;28;20029;-78
2022/09/21 08:25:47;;;;;;;14.30;4.22;;;15.60;99.90;;;;;;5074452;28;20092;-78
2022/09/21 08:28:13;;;;;;;14.93;3.65;;;15.60;99.90;;;;;;5076794;28;20059;-78
2022/09/21 08:30:40;;;;;;;8.00;3.38;;;15.70;99.90;;;;;;5077905;28;20025;-78
2022/09/21 08:33:07;;;;;;;16.60;3.90;;;15.80;99.90;;;;;;5065907;28;20021;-77
2022/09/21 08:35:34;;;;;;;7.75;3.05;;;15.80;99.90;;;;;;5069931;28;20039;-78
2022/09/21 08:38:00;;;;;;;17.67;3.78;;;15.90;99.90;;;;;;5074517;28;20093;-78
2022/09/21 08:40:26;;;;;;;12.50;2.80;;;16.00;99.90;;;;;;5063524;28;20025;-77
2022/09/21 08:43:09;;;;;;;6.88;3.10;;;15.90;99.90;;;;;;5067492;28;20035;-78
2022/09/21 08:45:44;;;;;;;12.98;3.60;;;16.10;99.90;;;;;;5072526;28;20049;-78
2022/09/21 08:48:24;;;;;;;20.33;3.95;;;16.30;99.90;;;;;;5071650;28;20082;-78
2022/09/21 08:50:56;;;;;;;15.50;3.63;;;16.40;99.90;;;;;;5077020;28;20092;-78
2022/09/21 08:53:30;;;;;;;5.93;2.80;;;16.40;99.90;;;;;;5069894;28;20056;-78
2022/09/21 08:55:56;;;;;;;7.57;3.28;;;16.40;99.90;;;;;;5069645;28;20021;-78
2022/09/21 08:58:27;;;;;;;11.90;3.53;;;16.40;99.90;;;;;;5074638;28;20020;-78
2022/09/21 09:01:27;;;;;;;9.18;2.78;;;16.50;99.90;;;;;;5074523;28;20050;-78
2022/09/21 09:04:18;;;;;;;10.00;3.25;;;16.60;99.90;;;;;;5077470;28;20139;-78
2022/09/21 09:07:03;;;;;;;7.97;3.20;;;16.70;99.90;;;;;;5065325;28;20029;-78
2022/09/21 09:09:40;;;;;;;17.77;4.05;;;16.80;99.90;;;;;;5060651;28;20040;-78
2022/09/21 09:12:44;;;;;;;8.18;3.67;;;17.00;99.90;;;;;;5063370;28;20094;-78
2022/09/21 09:15:30;;;;;;;9.43;3.22;;;17.20;99.90;;;;;;5065414;28;20477;-79
2022/09/21 09:18:13;;;;;;;7.13;3.17;;;17.30;99.90;;;;;;5071896;28;20032;-79
2022/09/21 09:20:40;;;;;;;7.55;2.88;;;17.20;99.90;;;;;;5080766;28;20035;-76
2022/09/21 09:23:21;;;;;;;8.32;3.13;;;17.40;99.90;;;;;;5074229;28;20014;-76
2022/09/21 09:25:53;;;;;;;10.98;2.90;;;17.50;99.90;;;;;;5076707;28;20017;-76
2022/09/21 09:28:40;;;;;;;10.55;2.65;;;17.50;99.90;;;;;;5070541;28;20373;-76
2022/09/21 09:31:17;;;;;;;11.18;2.90;;;17.50;99.90;;;;;;5071701;28;20397;-76
2022/09/21 09:33:55;;;;;;;6.68;2.90;;;17.50;99.90;;;;;;5067734;28;20017;-75
2022/09/21 09:36:23;;;;;;;9.32;2.75;;;17.60;99.90;;;;;;5073821;28;20500;-76
2022/09/21 09:39:01;;;;;;;18.02;2.80;;;17.70;99.90;;;;;;5077774;28;20032;-75
2022/09/21 09:42:09;;;;;;;12.25;2.95;;;17.90;99.90;;;;;;5074186;28;20013;-76
2022/09/21 09:44:56;;;;;;;14.25;3.55;;;18.00;99.90;;;;;;5055334;28;20052;-75
2022/09/21 09:47:40;;;;;;;5.70;2.17;;;18.10;99.90;;;;;;5061116;28;20029;-76
2022/09/21 09:50:38;;;;;;;5.85;3.03;;;18.20;99.90;;;;;;5061904;28;20515;-75
2022/09/21 09:53:25;;;;;;;9.88;2.72;;;18.20;99.90;;;;;;5063724;28;20043;-76
2022/09/21 09:55:56;;;;;;;8.45;2.67;;;18.40;99.90;;;;;;5073173;28;20081;-76
2022/09/21 09:58:35;;;;;;;10.55;2.17;;;18.50;99.90;;;;;;5069315;28;20024;-76
2022/09/21 10:01:01;;;;;;;7.15;3.03;;;18.60;99.90;;;;;;5069798;28;20131;-76
2022/09/21 10:03:27;;;;;;;10.38;2.75;;;18.70;99.90;;;;;;5070089;28;20103;-76
2022/09/21 10:05:54;;;;;;;4.45;2.20;;;18.80;99.90;;;;;;5072286;28;20021;-76
2022/09/21 10:08:38;;;;;;;14.15;2.60;;;18.90;99.90;;;;;;5075263;28;20091;-75
2022/09/21 10:11:04;;;;;;;11.82;2.75;;;19.00;99.90;;;;;;5065470;28;20016;-75
2022/09/21 10:13:34;;;;;;;8.55;2.70;;;19.00;99.90;;;;;;5075183;28;20404;-75
2022/09/21 10:16:10;;;;;;;7.32;2.40;;;18.90;99.90;;;;;;5057763;28;20072;-75
2022/09/21 10:18:55;;;;;;;6.97;2.78;;;18.90;99.90;;;;;;5061935;28;20032;-75
2022/09/21 10:21:25;;;;;;;10.23;3.05;;;19.00;99.90;;;;;;5061008;28;20027;-75
2022/09/21 10:24:00;;;;;;;4.82;2.13;;;19.10;99.90;;;;;;5064041;28;20028;-76
2022/09/21 10:26:54;;;;;;;9.07;2.15;;;19.30;99.90;;;;;;5066872;28;20025;-76
2022/09/21 10:29:24;;;;;;;9.27;2.22;;;19.50;99.90;;;;;;5050547;28;20028;-75
2022/09/21 10:32:06;;;;;;;11.45;2.40;;;19.40;99.90;;;;;;5068019;28;20021;-76
2022/09/21 10:34:34;;;;;;;6.40;2.33;;;19.50;99.90;;;;;;5064504;28;20036;-76
2022/09/21 10:37:02;;;;;;;10.35;2.10;;;19.60;99.90;;;;;;5071052;28;20044;-76
2022/09/21 10:39:32;;;;;;;9.77;2.78;;;19.80;99.90;;;;;;5068895;28;20100;-76
2022/09/21 10:42:03;;;;;;;6.30;2.42;;;20.00;99.90;;;;;;5072924;28;20481;-76
2022/09/21 10:44:40;;;;;;;10.00;3.08;;;20.00;99.90;;;;;;5072582;28;20151;-76
2022/09/21 10:47:21;;;;;;;4.75;2.28;;;20.10;99.90;;;;;;5075796;28;20472;-76
2022/09/21 10:50:20;;;;;;;10.23;2.47;;;20.10;99.80;;;;;;5076338;28;20506;-76
2022/09/21 10:52:47;;;;;;;10.52;2.85;;;20.00;99.50;;;;;;5061704;28;20150;-76
2022/09/21 10:55:19;;;;;;;8.63;1.90;;;20.00;99.80;;;;;;5063378;28;20024;-75
2022/09/21 10:57:46;;;;;;;9.10;2.40;;;20.00;99.20;;;;;;5075841;28;20021;-76
2022/09/21 11:00:39;;;;;;;13.20;2.50;;;20.00;98.90;;;;;;5067283;28;20036;-76
2022/09/21 11:03:30;;;;;;;6.22;2.13;;;20.10;98.80;;;;;;5063655;28;20012;-76
2022/09/21 11:06:13;;;;;;;7.22;1.63;;;20.10;98.50;;;;;;5073832;28;20020;-76
2022/09/21 11:08:42;;;;;;;9.95;2.33;;;20.30;98.60;;;;;;5070660;28;20025;-76
2022/09/21 11:11:49;;;;;;;11.85;2.28;;;20.40;99.30;;;;;;5073810;28;20028;-76
2022/09/21 11:14:40;;;;;;;11.77;2.13;;;20.50;97.00;;;;;;5031731;28;20037;-75
2022/09/21 11:17:18;;;;;;;8.82;2.05;;;20.60;95.70;;;;;;5061115;28;20083;-75
2022/09/21 11:20:04;;;;;;;6.07;1.63;;;20.70;95.70;;;;;;5076835;28;20435;-76
2022/09/21 11:22:39;;;;;;;9.25;2.72;;;20.60;94.80;;;;;;5072915;28;20472;-76
2022/09/21 11:25:35;;;;;;;12.63;2.88;;;20.70;97.70;;;;;;5069547;28;20062;-77
2022/09/21 11:28:26;;;;;;;14.70;2.25;;;20.80;95.60;;;;;;5065919;28;20112;-76
2022/09/21 11:31:05;;;;;;;9.90;2.00;;;20.90;94.50;;;;;;5060868;28;20040;-76
2022/09/21 11:34:04;;;;;;;11.63;2.42;;;20.80;94.40;;;;;;5068683;28;20024;-76
2022/09/21 11:36:42;;;;;;;5.03;2.00;;;20.90;93.60;;;;;;5067943;28;20051;-76
2022/09/21 11:39:19;;;;;;;5.45;1.85;;;20.90;93.00;;;;;;5067955;28;20044;-76
2022/09/21 11:41:57;;;;;;;8.50;2.60;;;20.90;92.70;;;;;;5063908;28;20035;-76
2022/09/21 11:44:48;;;;;;;7.07;2.05;;;21.10;94.20;;;;;;5070991;28;20486;-77
2022/09/21 11:47:42;;;;;;;6.15;2.15;;;21.10;94.80;;;;;;5073470;28;20059;-77
2022/09/21 11:50:38;;;;;;;5.10;1.85;;;21.20;92.40;;;;;;5066165;28;20028;-76
2022/09/21 11:53:25;;;;;;;7.72;2.10;;;21.10;92.10;;;;;;5069448;28;20021;-76
2022/09/21 11:56:14;;;;;;;13.10;2.17;;;21.10;92.70;;;;;;5061239;28;20032;-75
2022/09/21 11:58:40;;;;;;;9.35;2.45;;;21.10;92.90;;;;;;5060053;28;20032;-76
2022/09/21 12:01:38;;;;;;;5.50;1.98;;;21.10;92.70;;;;;;5069665;28;20028;-75
2022/09/21 12:04:14;;;;;;;11.57;1.83;;;21.10;93.30;;;;;;5069807;28;20028;-76
2022/09/21 12:07:14;;;;;;;10.77;2.05;;;21.30;93.70;;;;;;5067916;28;20025;-76
2022/09/21 12:09:51;;;;;;;7.75;1.90;;;21.50;93.50;;;;;;5072818;28;20048;-76
2022/09/21 12:12:36;;;;;;;6.97;2.28;;;21.50;93.10;;;;;;5075846;28;20060;-76
2022/09/21 12:15:01;;;;;;;13.73;2.55;;;21.70;93.50;;;;;;5074254;28;20021;-76
2022/09/21 12:17:46;;;;;;;11.90;2.17;;;21.90;93.70;;;;;;5078233;28;20030;-76
2022/09/21 12:20:29;;;;;;;6.45;2.58;;;22.00;93.30;;;;;;5075573;28;20025;-76
2022/09/21 12:23:03;;;;;;;7.07;2.50;;;22.20;93.40;;;;;;5077365;28;20021;-77
2022/09/21 12:25:38;;;;;;;3.78;1.88;;;22.30;92.90;;;;;;5070559;28;20391;-76
2022/09/21 12:28:18;;;;;;;4.85;1.90;;;22.30;92.80;;;;;;5067017;28;20032;-76
2022/09/21 12:30:50;;;;;;;7.20;1.77;;;22.40;91.80;;;;;;5077926;28;20044;-76
2022/09/21 12:33:39;;;;;;;8.18;2.22;;;22.40;90.40;;;;;;5076840;28;20036;-76
2022/09/21 12:36:24;;;;;;;7.78;2.33;;;22.40;91.20;;;;;;5069044;28;20041;-77
2022/09/21 12:38:57;;;;;;;3.42;1.58;;;22.50;90.60;;;;;;5072239;28;20028;-76
2022/09/21 12:41:30;;;;;;;5.13;2.30;;;22.50;88.80;;;;;;5076123;28;20376;-76
2022/09/21 12:44:19;;;;;;;7.90;1.90;;;22.50;85.70;;;;;;5078856;28;20026;-76
2022/09/21 12:46:54;;;;;;;9.70;1.92;;;22.40;84.20;;;;;;5066859;28;20013;-76
2022/09/21 12:49:27;;;;;;;5.78;1.90;;;22.40;84.40;;;;;;5065226;28;20447;-76
2022/09/21 12:52:05;;;;;;;6.55;2.05;;;22.30;84.20;;;;;;5060224;28;20033;-76
2022/09/21 12:54:55;;;;;;;12.48;1.67;;;22.30;84.60;;;;;;5066248;28;20020;-76
2022/09/21 12:57:59;;;;;;;6.03;1.80;;;22.50;86.20;;;;;;5064363;28;20120;-75
2022/09/21 13:00:33;;;;;;;5.93;1.60;;;22.70;84.20;;;;;;5042724;28;20295;-75
2022/09/21 13:03:09;;;;;;;9.35;2.47;;;22.70;81.60;;;;;;5066706;28;20103;-76
2022/09/21 13:06:12;;;;;;;4.45;1.70;;;22.70;80.80;;;;;;5073795;28;20032;-77
2022/09/21 13:08:42;;;;;;;11.45;3.17;;;22.70;80.30;;;;;;5073111;28;20025;-76
2022/09/21 13:11:09;;;;;;;7.57;2.07;;;22.70;79.20;;;;;;5074436;28;20071;-77
2022/09/21 13:13:50;;;;;;;4.85;1.50;;;22.70;80.20;;;;;;5072179;28;20025;-77
2022/09/21 13:16:25;;;;;;;;;;;22.90;81.00;;;;;;5072941;28;20075;-77
2022/09/21 13:19:20;;;;;;;8.02;2.55;;;23.10;79.40;;;;;;5064349;28;19916;-77
2022/09/21 13:21:46;;;;;;;9.27;1.88;;;23.10;78.60;;;;;;5064736;28;20080;-76
2022/09/21 13:24:28;;;;;;;5.10;2.10;;;22.90;78.30;;;;;;5068380;28;20497;-76